Terminal Aerodrome Forecast
Issued by NWS

Home | Current Version | Previous Version | Text Only | Print | Product List | Glossary On
Versions: 1 2 3 4 5 6 7 8 9 10 11 12
000
FTUS45 KABQ 240523
TAFFMN
TAF
KFMN 240523Z 2406/2506 06006KT P6SM FEW200
     FM241000 09011KT P6SM FEW150
     FM241600 12007KT P6SM FEW120
     FM241800 28011KT P6SM FEW150
     FM242100 29018G28KT P6SM FEW200
     FM250300 32009KT P6SM FEW200=

USA.gov is the U.S. government's official web portal to all federal, state and local government web resources and services.